createdAt,value
2023-04-11T00:03:33.010Z,11.88
2023-04-11T00:08:34.647Z,10.97
2023-04-11T00:13:37.312Z,10.39
2023-04-11T00:18:39.371Z,10.15
2023-04-11T00:23:41.077Z,10.00
2023-04-11T00:28:42.619Z,9.88
2023-04-11T00:33:44.603Z,9.82
2023-04-11T00:38:46.371Z,9.77
2023-04-11T00:43:49.713Z,9.75
2023-04-11T00:48:51.671Z,9.73
2023-04-11T00:53:54.583Z,9.73
2023-04-11T00:58:57.064Z,9.63
2023-04-11T01:04:01.128Z,9.61
2023-04-11T01:09:04.966Z,9.55
2023-04-11T01:14:06.712Z,9.10
2023-04-11T01:19:08.279Z,8.83
2023-04-11T01:24:09.848Z,8.53
2023-04-11T01:29:11.443Z,8.53
2023-04-11T01:34:14.961Z,8.64
2023-04-11T01:39:16.564Z,8.78
2023-04-11T01:44:19.352Z,8.88
2023-04-11T01:49:21.590Z,8.81
2023-04-11T01:54:23.152Z,8.66
2023-04-11T01:59:24.656Z,8.54
2023-04-11T02:04:26.294Z,8.45
2023-04-11T02:09:27.809Z,8.39
2023-04-11T02:14:40.560Z,8.40
2023-04-11T02:19:42.161Z,8.41
2023-04-11T02:24:43.740Z,8.41
2023-04-11T02:29:45.376Z,8.39
2023-04-11T02:34:46.932Z,8.37
2023-04-11T02:39:48.445Z,8.34
2023-04-11T02:44:49.967Z,8.37
2023-04-11T02:49:53.848Z,8.33
2023-04-11T02:55:01.152Z,8.33
2023-04-11T03:00:07.017Z,8.23
2023-04-11T03:05:17.873Z,8.28
2023-04-11T03:10:23.179Z,8.29
2023-04-11T03:15:25.228Z,8.31
2023-04-11T03:20:26.805Z,8.34
2023-04-11T03:25:28.872Z,8.36
2023-04-11T03:30:30.527Z,8.34
2023-04-11T03:35:32.355Z,8.35
2023-04-11T03:40:35.007Z,8.32
2023-04-11T03:45:53.345Z,8.31
2023-04-11T03:51:07.995Z,8.25
2023-04-11T03:56:38.797Z,8.29
2023-04-11T04:01:43.230Z,8.29
2023-04-11T04:06:45.989Z,8.31
2023-04-11T04:11:48.223Z,8.33
2023-04-11T04:16:52.201Z,8.36
2023-04-11T04:21:58.082Z,8.35
2023-04-11T04:27:03.764Z,8.28
2023-04-11T04:32:21.026Z,8.19
2023-04-11T04:37:25.040Z,8.06
2023-04-11T04:42:36.404Z,7.94
2023-04-11T04:47:40.254Z,7.88
2023-04-11T04:52:42.330Z,7.85
2023-04-11T04:57:44.332Z,7.85
2023-04-11T05:02:47.837Z,7.87
2023-04-11T05:07:50.172Z,7.87
2023-04-11T05:12:53.500Z,7.87
2023-04-11T05:17:55.292Z,7.87
2023-04-11T05:22:56.917Z,7.81
2023-04-11T05:27:58.563Z,7.69
2023-04-11T05:33:01.899Z,7.62
2023-04-11T05:38:03.651Z,7.57
2023-04-11T05:43:05.522Z,7.60
2023-04-11T05:48:10.841Z,7.60
2023-04-11T05:53:13.080Z,7.69
2023-04-11T05:58:15.013Z,7.70
2023-04-11T06:03:17.642Z,7.83
2023-04-11T06:08:21.483Z,7.92
2023-04-11T06:13:23.342Z,7.96
2023-04-11T06:18:24.910Z,7.98
2023-04-11T06:23:26.451Z,8.10
2023-04-11T06:28:28.086Z,8.41
2023-04-11T06:33:29.587Z,8.68
2023-04-11T06:38:31.087Z,9.02
2023-04-11T06:43:32.574Z,9.24
2023-04-11T06:48:34.442Z,9.35
2023-04-11T06:53:36.803Z,9.64
2023-04-11T06:58:38.489Z,9.78
2023-04-11T07:03:40.547Z,10.08
2023-04-11T07:08:43.696Z,10.20
2023-04-11T07:13:45.247Z,10.42
2023-04-11T07:18:50.996Z,11.12
2023-04-11T07:23:53.362Z,11.14
2023-04-11T07:28:55.098Z,11.32
2023-04-11T07:33:57.039Z,11.58
2023-04-11T07:38:59.881Z,11.90
2023-04-11T07:44:01.545Z,11.99
2023-04-11T07:49:03.204Z,12.16
2023-04-11T07:54:04.776Z,12.28
2023-04-11T07:59:06.496Z,12.52
2023-04-11T08:04:08.189Z,12.72
2023-04-11T08:09:10.919Z,12.97
2023-04-11T08:14:14.786Z,13.11
2023-04-11T08:19:17.120Z,13.10
2023-04-11T08:24:18.916Z,12.96
2023-04-11T08:29:20.457Z,12.86
2023-04-11T08:34:22.022Z,12.84
2023-04-11T08:39:23.536Z,12.70
2023-04-11T08:44:25.199Z,12.55
2023-04-11T08:49:26.685Z,12.60
2023-04-11T08:54:28.178Z,12.43
2023-04-11T08:59:33.928Z,12.52
2023-04-11T09:04:43.058Z,12.53
2023-04-11T09:09:45.426Z,12.90
2023-04-11T09:14:46.959Z,12.77
2023-04-11T09:19:49.514Z,12.67
2023-04-11T09:25:02.639Z,13.08
2023-04-11T09:30:05.878Z,13.03
2023-04-11T09:35:11.349Z,13.17
2023-04-11T09:40:14.925Z,13.29
2023-04-11T09:45:21.121Z,13.55
2023-04-11T09:50:23.962Z,13.50
2023-04-11T09:55:26.136Z,14.17
2023-04-11T10:00:32.474Z,14.55
2023-04-11T10:05:34.159Z,14.77
2023-04-11T10:10:36.097Z,15.24
2023-04-11T10:15:37.725Z,15.20
2023-04-11T10:20:48.176Z,15.14
2023-04-11T10:25:55.444Z,15.12
2023-04-11T10:31:13.032Z,14.92
2023-04-11T10:36:14.667Z,14.58
2023-04-11T10:41:28.605Z,14.35
2023-04-11T10:46:30.301Z,14.52
2023-04-11T10:51:33.807Z,14.74
2023-04-11T10:56:45.494Z,14.68
2023-04-11T11:01:54.877Z,14.75
2023-04-11T11:06:57.915Z,14.85
2023-04-11T11:12:05.605Z,14.64
2023-04-11T11:17:07.949Z,14.53
2023-04-11T11:22:25.583Z,14.74
2023-04-11T11:27:33.107Z,14.87
2023-04-11T11:32:38.997Z,14.77
2023-04-11T11:37:40.807Z,14.64
2023-04-11T11:42:42.457Z,14.55
2023-04-11T11:47:45.694Z,14.05
2023-04-11T11:52:48.777Z,14.46
2023-04-11T11:57:50.851Z,14.90
2023-04-11T12:02:54.205Z,14.79
2023-04-11T12:07:58.588Z,14.43
2023-04-11T12:13:00.290Z,14.00
2023-04-11T12:18:05.621Z,13.92
2023-04-11T12:23:07.202Z,14.12
2023-04-11T12:28:09.814Z,14.39
2023-04-11T12:33:14.954Z,14.56
2023-04-11T12:38:17.956Z,14.92
2023-04-11T12:43:19.906Z,15.40
2023-04-11T12:48:21.519Z,15.60
2023-04-11T12:53:23.495Z,15.73
2023-04-11T12:58:26.396Z,15.79
2023-04-11T13:03:29.161Z,15.80
2023-04-11T13:08:30.997Z,15.45
2023-04-11T13:20:44.887Z,14.77
2023-04-11T13:25:46.356Z,14.73
2023-04-11T13:30:47.857Z,14.62
2023-04-11T13:35:53.149Z,14.67
2023-04-11T13:40:55.544Z,14.72
2023-04-11T13:46:05.198Z,14.59
2023-04-11T13:51:07.098Z,14.47
2023-04-11T13:56:08.755Z,14.35
2023-04-11T14:01:10.726Z,14.74
2023-04-11T14:06:12.457Z,14.81
2023-04-11T14:11:14.453Z,14.74
2023-04-11T14:16:16.446Z,15.00
2023-04-11T14:22:20.195Z,14.75
2023-04-11T14:27:21.898Z,14.60
2023-04-11T14:32:23.419Z,14.58
2023-04-11T14:37:24.899Z,14.54
2023-04-11T14:42:26.588Z,14.42
2023-04-11T14:47:28.682Z,14.41
2023-04-11T14:52:30.249Z,14.47
2023-04-11T14:57:46.975Z,14.64
2023-04-11T15:02:53.779Z,14.77
2023-04-11T15:07:55.647Z,14.75
2023-04-11T15:12:57.132Z,14.80
2023-04-11T15:18:18.430Z,14.87
2023-04-11T15:23:20.702Z,14.99
2023-04-11T15:28:23.568Z,15.25
2023-04-11T15:33:25.943Z,15.23
2023-04-11T15:38:28.610Z,15.35
2023-04-11T15:43:32.048Z,15.27
2023-04-11T15:48:33.512Z,14.99
2023-04-11T15:53:35.238Z,14.75
2023-04-11T15:58:36.754Z,14.61
2023-04-11T16:03:38.395Z,14.54
2023-04-11T16:08:40.063Z,14.49
2023-04-11T16:13:44.003Z,14.51
2023-04-11T16:18:45.603Z,14.50
2023-04-11T16:23:47.114Z,14.44
2023-04-11T16:28:48.980Z,14.36
2023-04-11T16:33:52.230Z,14.19
2023-04-11T16:38:53.773Z,14.08
2023-04-11T16:43:55.982Z,13.98
2023-04-11T16:48:59.310Z,13.73
2023-04-11T16:54:02.256Z,13.46
2023-04-11T16:59:05.104Z,13.38
2023-04-11T17:04:06.989Z,13.20
2023-04-11T17:09:08.911Z,13.02
2023-04-11T17:14:10.439Z,12.86
2023-04-11T17:19:12.097Z,12.71
2023-04-11T17:24:13.603Z,12.56
2023-04-11T17:29:15.555Z,12.38
2023-04-11T17:34:17.004Z,12.16
2023-04-11T17:39:18.666Z,11.91
2023-04-11T17:44:20.730Z,11.68
2023-04-11T17:49:22.214Z,11.49
2023-04-11T17:54:23.770Z,11.29
2023-04-11T17:59:25.361Z,11.11
2023-04-11T18:04:26.968Z,10.90
2023-04-11T18:09:31.786Z,10.71
2023-04-11T18:14:34.160Z,10.54
2023-04-11T18:19:36.151Z,10.38
2023-04-11T18:24:38.093Z,10.24
2023-04-11T18:29:39.559Z,10.09
2023-04-11T18:34:41.137Z,9.96
2023-04-11T18:39:42.646Z,9.81
2023-04-11T18:44:44.199Z,9.66
2023-04-11T18:49:45.850Z,9.54
2023-04-11T18:54:47.318Z,9.40
2023-04-11T18:59:50.532Z,9.28
2023-04-11T19:04:55.440Z,9.19
2023-04-11T19:09:57.198Z,9.08
2023-04-11T19:14:58.798Z,8.99
2023-04-11T19:20:02.112Z,8.92
2023-04-11T19:25:03.789Z,8.85
2023-04-11T19:30:06.412Z,8.75
2023-04-11T19:35:10.457Z,8.68
2023-04-11T19:40:15.177Z,8.63
2023-04-11T19:45:16.745Z,8.56
2023-04-11T19:50:18.506Z,8.42
2023-04-11T19:55:20.069Z,8.36
2023-04-11T20:00:21.552Z,8.29
2023-04-11T20:05:23.798Z,8.27
2023-04-11T20:10:28.387Z,8.25
2023-04-11T20:15:30.939Z,8.19
2023-04-11T20:20:33.669Z,8.10
2023-04-11T20:25:35.493Z,8.13
2023-04-11T20:30:40.122Z,8.16
2023-04-11T20:35:41.605Z,8.18
2023-04-11T20:40:43.152Z,8.13
2023-04-11T20:45:47.682Z,8.02
2023-04-11T20:50:49.280Z,8.04
2023-04-11T20:55:50.846Z,7.99
2023-04-11T21:00:53.545Z,7.94
2023-04-11T21:05:55.069Z,7.97
2023-04-11T21:10:56.521Z,7.92
2023-04-11T21:15:58.493Z,7.91
2023-04-11T21:21:00.074Z,7.94
2023-04-11T21:26:01.578Z,7.99
2023-04-11T21:31:03.125Z,8.09
2023-04-11T21:36:05.034Z,8.21
2023-04-11T21:41:06.967Z,8.31
2023-04-11T21:46:08.504Z,8.39
2023-04-11T21:51:10.439Z,8.44
2023-04-11T21:56:11.962Z,8.49
2023-04-11T22:01:15.067Z,8.55
2023-04-11T22:06:19.336Z,8.61
2023-04-11T22:11:20.799Z,8.67
2023-04-11T22:16:26.316Z,8.70
2023-04-11T22:21:28.411Z,8.72
2023-04-11T22:26:33.971Z,8.75
2023-04-11T22:31:38.273Z,8.82
2023-04-11T22:36:40.089Z,8.90
2023-04-11T22:41:41.580Z,8.93
2023-04-11T22:46:57.145Z,8.88
2023-04-11T22:52:02.127Z,8.88
2023-04-11T22:57:03.668Z,8.91
2023-04-11T23:02:05.653Z,8.93
2023-04-11T23:07:07.168Z,8.90
2023-04-11T23:12:08.967Z,8.93
2023-04-11T23:17:10.516Z,9.04
2023-04-11T23:22:12.428Z,9.17
2023-04-11T23:27:14.056Z,9.25
2023-04-11T23:32:15.641Z,9.27
2023-04-11T23:37:17.845Z,9.31
2023-04-11T23:42:19.286Z,9.29
2023-04-11T23:47:20.861Z,9.21
2023-04-11T23:52:22.421Z,9.11
2023-04-11T23:57:24.787Z,9.03
